Time,TemperatureF,DewpointF,PressureIn,WindDirection,WindDirectionDegrees,WindSpeedMPH,WindSpeedGustMPH,Humidity,HourlyPrecipIn,Conditions,Clouds,dailyrainin,SoftwareType,DateUTC
2013-12-30 00:02:00,19.8,14.3,30.27,NNW,335,10.0,14.0,79,0.00,,,0.00,WUHU216DAVISVP2,2013-12-30 06:02:00,
2013-12-30 00:07:00,19.6,14.2,30.27,NW,316,12.0,14.0,79,0.00,,,0.00,WUHU216DAVISVP2,2013-12-30 06:07:00,
2013-12-30 00:12:00,19.5,14.1,30.27,NW,321,7.0,14.0,79,0.00,,,0.00,WUHU216DAVISVP2,2013-12-30 06:12:00,
2013-12-30 00:17:00,19.3,13.9,30.27,NW,319,8.0,12.0,79,0.00,,,0.00,WUHU216DAVISVP2,2013-12-30 06:17:00,
2013-12-30 00:22:00,19.2,13.8,30.27,NW,326,6.0,11.0,79,0.00,,,0.00,WUHU216DAVISVP2,2013-12-30 06:22:00,
2013-12-30 00:27:00,19.1,13.9,30.27,NW,321,10.0,12.0,80,0.00,,,0.00,WUHU216DAVISVP2,2013-12-30 06:27:00,
2013-12-30 00:32:00,18.9,13.5,30.28,NW,311,7.0,12.0,79,0.00,,,0.00,WUHU216DAVISVP2,2013-12-30 06:32:00,
2013-12-30 00:37:00,18.7,13.3,30.28,NW,316,8.0,11.0,79,0.00,,,0.00,WUHU216DAVISVP2,2013-12-30 06:37:00,
2013-12-30 00:42:00,18.6,13.5,30.28,WNW,303,7.0,13.0,80,0.00,,,0.00,WUHU216DAVISVP2,2013-12-30 06:42:00,
2013-12-30 00:47:00,18.4,13.0,30.27,NW,323,8.0,15.0,79,0.00,,,0.00,WUHU216DAVISVP2,2013-12-30 06:47:00,
2013-12-30 00:52:00,18.3,12.9,30.28,NW,320,7.0,15.0,79,0.00,,,0.00,WUHU216DAVISVP2,2013-12-30 06:52:00,
2013-12-30 00:57:00,18.1,12.7,30.28,NW,322,9.0,14.0,79,0.00,,,0.00,WUHU216DAVISVP2,2013-12-30 06:57:00,
2013-12-30 01:02:00,17.9,12.5,30.28,NW,309,10.0,14.0,79,0.00,,,0.00,WUHU216DAVISVP2,2013-12-30 07:02:00,
2013-12-30 01:07:00,17.9,12.5,30.28,NW,304,4.0,14.0,79,0.00,,,0.00,WUHU216DAVISVP2,2013-12-30 07:07:00,
2013-12-30 01:12:00,17.8,12.1,30.28,NNW,329,9.0,14.0,78,0.00,,,0.00,WUHU216DAVISVP2,2013-12-30 07:12:00,
2013-12-30 01:17:00,17.7,11.7,30.29,NNW,327,8.0,12.0,77,0.00,,,0.00,WUHU216DAVISVP2,2013-12-30 07:17:00,
2013-12-30 01:22:00,17.6,11.6,30.29,NW,315,6.0,11.0,77,0.00,,,0.00,WUHU216DAVISVP2,2013-12-30 07:22:00,
2013-12-30 01:27:00,17.5,11.5,30.29,NW,306,5.0,11.0,77,0.00,,,0.00,WUHU216DAVISVP2,2013-12-30 07:27:00,
2013-12-30 01:32:00,17.5,11.8,30.29,NW,313,10.0,11.0,78,0.00,,,0.00,WUHU216DAVISVP2,2013-12-30 07:32:00,
2013-12-30 01:37:00,17.4,11.4,30.29,NW,317,8.0,14.0,77,0.00,,,0.00,WUHU216DAVISVP2,2013-12-30 07:37:00,
2013-12-30 01:42:00,17.4,11.4,30.29,NW,311,8.0,14.0,77,0.00,,,0.00,WUHU216DAVISVP2,2013-12-30 07:42:00,
2013-12-30 01:47:00,17.3,11.3,30.29,NW,320,9.0,12.0,77,0.00,,,0.00,WUHU216DAVISVP2,2013-12-30 07:47:00,
2013-12-30 01:52:00,17.3,11.3,30.29,NNW,327,5.0,14.0,77,0.00,,,0.00,WUHU216DAVISVP2,2013-12-30 07:52:00,
2013-12-30 01:57:00,17.2,11.5,30.30,NW,322,6.0,14.0,78,0.00,,,0.00,WUHU216DAVISVP2,2013-12-30 07:57:00,
2013-12-30 02:02:00,17.2,11.5,30.30,NNW,333,6.0,12.0,78,0.00,,,0.00,WUHU216DAVISVP2,2013-12-30 08:02:00,
2013-12-30 02:07:00,17.1,11.4,30.30,NW,315,7.0,12.0,78,0.00,,,0.00,WUHU216DAVISVP2,2013-12-30 08:07:00,
2013-12-30 02:12:00,17.1,11.7,30.30,NW,323,7.0,11.0,79,0.00,,,0.00,WUHU216DAVISVP2,2013-12-30 08:12:00,
2013-12-30 02:17:00,17.0,11.3,30.30,NW,323,9.0,11.0,78,0.00,,,0.00,WUHU216DAVISVP2,2013-12-30 08:17:00,
2013-12-30 02:22:00,17.0,11.3,30.31,NNW,330,8.0,11.0,78,0.00,,,0.00,WUHU216DAVISVP2,2013-12-30 08:22:00,
2013-12-30 02:27:00,16.9,11.2,30.31,NNW,341,8.0,12.0,78,0.00,,,0.00,WUHU216DAVISVP2,2013-12-30 08:27:00,
2013-12-30 02:32:00,16.9,11.2,30.31,NW,319,7.0,12.0,78,0.00,,,0.00,WUHU216DAVISVP2,2013-12-30 08:32:00,
2013-12-30 02:37:00,16.8,11.1,30.31,NNW,328,6.0,10.0,78,0.00,,,0.00,WUHU216DAVISVP2,2013-12-30 08:37:00,
2013-12-30 02:42:00,16.7,11.0,30.31,NW,324,6.0,10.0,78,0.00,,,0.00,WUHU216DAVISVP2,2013-12-30 08:42:00,
2013-12-30 02:47:00,16.7,11.0,30.32,NW,319,8.0,9.0,78,0.00,,,0.00,WUHU216DAVISVP2,2013-12-30 08:47:00,
2013-12-30 02:52:00,16.5,10.3,30.32,NW,313,11.0,11.0,76,0.00,,,0.00,WUHU216DAVISVP2,2013-12-30 08:52:00,
2013-12-30 02:57:00,16.3,9.5,30.32,WNW,300,9.0,12.0,74,0.00,,,0.00,WUHU216DAVISVP2,2013-12-30 08:57:00,
2013-12-30 03:02:00,16.2,8.8,30.32,NW,325,9.0,12.0,72,0.00,,,0.00,WUHU216DAVISVP2,2013-12-30 09:02:00,
2013-12-30 03:07:00,16.0,8.3,30.32,NNW,331,9.0,11.0,71,0.00,,,0.00,WUHU216DAVISVP2,2013-12-30 09:07:00,
2013-12-30 03:12:00,16.0,8.3,30.32,NW,321,5.0,11.0,71,0.00,,,0.00,WUHU216DAVISVP2,2013-12-30 09:12:00,
2013-12-30 03:17:00,15.9,8.8,30.32,NW,308,6.0,11.0,73,0.00,,,0.00,WUHU216DAVISVP2,2013-12-30 09:17:00,
2013-12-30 03:22:00,15.9,9.4,30.32,NW,314,8.0,10.0,75,0.00,,,0.00,WUHU216DAVISVP2,2013-12-30 09:22:00,
2013-12-30 03:27:00,15.8,9.0,30.33,NW,324,9.0,10.0,74,0.00,,,0.00,WUHU216DAVISVP2,2013-12-30 09:27:00,
2013-12-30 03:32:00,15.8,9.0,30.33,NNW,347,6.0,11.0,74,0.00,,,0.00,WUHU216DAVISVP2,2013-12-30 09:32:00,
2013-12-30 03:37:00,15.8,9.3,30.33,NNW,338,4.0,11.0,75,0.00,,,0.00,WUHU216DAVISVP2,2013-12-30 09:37:00,
2013-12-30 03:42:00,15.7,9.2,30.33,NNW,330,5.0,9.0,75,0.00,,,0.00,WUHU216DAVISVP2,2013-12-30 09:42:00,
2013-12-30 03:47:00,15.6,9.4,30.33,NW,326,6.0,8.0,76,0.00,,,0.00,WUHU216DAVISVP2,2013-12-30 09:47:00,
2013-12-30 03:52:00,15.5,9.0,30.33,NW,320,7.0,9.0,75,0.00,,,0.00,WUHU216DAVISVP2,2013-12-30 09:52:00,
2013-12-30 03:57:00,15.5,9.3,30.33,NNW,329,7.0,9.0,76,0.00,,,0.00,WUHU216DAVISVP2,2013-12-30 09:57:00,
2013-12-30 04:02:00,15.4,9.5,30.33,NNW,332,9.0,10.0,77,0.00,,,0.00,WUHU216DAVISVP2,2013-12-30 10:02:00,
2013-12-30 04:07:00,15.4,9.5,30.33,NNW,334,7.0,10.0,77,0.00,,,0.00,WUHU216DAVISVP2,2013-12-30 10:07:00,
2013-12-30 04:12:00,15.3,9.4,30.33,NNW,348,6.0,8.0,77,0.00,,,0.00,WUHU216DAVISVP2,2013-12-30 10:12:00,
2013-12-30 04:17:00,15.3,9.7,30.33,NNW,331,6.0,8.0,78,0.00,,,0.00,WUHU216DAVISVP2,2013-12-30 10:17:00,
2013-12-30 04:22:00,15.1,9.5,30.33,NNW,343,5.0,8.0,78,0.00,,,0.00,WUHU216DAVISVP2,2013-12-30 10:22:00,
2013-12-30 04:27:00,15.1,9.5,30.33,NNW,340,6.0,9.0,78,0.00,,,0.00,WUHU216DAVISVP2,2013-12-30 10:27:00,
2013-12-30 04:32:00,15.0,9.7,30.33,NNW,345,4.0,9.0,79,0.00,,,0.00,WUHU216DAVISVP2,2013-12-30 10:32:00,
2013-12-30 04:37:00,14.9,9.6,30.34,NW,321,8.0,9.0,79,0.00,,,0.00,WUHU216DAVISVP2,2013-12-30 10:37:00,
2013-12-30 04:42:00,14.9,9.6,30.34,North,349,7.0,9.0,79,0.00,,,0.00,WUHU216DAVISVP2,2013-12-30 10:42:00,
2013-12-30 04:47:00,14.9,9.6,30.34,NW,321,8.0,9.0,79,0.00,,,0.00,WUHU216DAVISVP2,2013-12-30 10:47:00,
2013-12-30 04:52:00,14.8,9.2,30.34,NNW,347,8.0,10.0,78,0.00,,,0.00,WUHU216DAVISVP2,2013-12-30 10:52:00,
2013-12-30 04:57:00,14.7,9.1,30.34,NNW,340,5.0,10.0,78,0.00,,,0.00,WUHU216DAVISVP2,2013-12-30 10:57:00,
2013-12-30 05:02:00,14.7,9.1,30.34,NW,318,6.0,9.0,78,0.00,,,0.00,WUHU216DAVISVP2,2013-12-30 11:02:00,
2013-12-30 05:07:00,14.5,8.6,30.34,NNW,338,6.0,9.0,77,0.00,,,0.00,WUHU216DAVISVP2,2013-12-30 11:07:00,
2013-12-30 05:12:00,14.4,8.8,30.34,NNW,346,6.0,8.0,78,0.00,,,0.00,WUHU216DAVISVP2,2013-12-30 11:12:00,
2013-12-30 05:17:00,14.3,8.4,30.34,NW,325,6.0,10.0,77,0.00,,,0.00,WUHU216DAVISVP2,2013-12-30 11:17:00,
2013-12-30 05:22:00,14.3,8.4,30.34,NW,320,5.0,10.0,77,0.00,,,0.00,WUHU216DAVISVP2,2013-12-30 11:22:00,
2013-12-30 05:27:00,14.3,8.7,30.35,NW,326,5.0,9.0,78,0.00,,,0.00,WUHU216DAVISVP2,2013-12-30 11:27:00,
2013-12-30 05:32:00,14.2,8.3,30.35,NNW,338,4.0,9.0,77,0.00,,,0.00,WUHU216DAVISVP2,2013-12-30 11:32:00,
2013-12-30 05:37:00,14.3,8.7,30.35,NNW,333,7.0,8.0,78,0.00,,,0.00,WUHU216DAVISVP2,2013-12-30 11:37:00,
2013-12-30 05:42:00,14.2,8.6,30.35,NW,319,6.0,8.0,78,0.00,,,0.00,WUHU216DAVISVP2,2013-12-30 11:42:00,
2013-12-30 05:47:00,14.1,8.2,30.35,NW,322,7.0,8.0,77,0.00,,,0.00,WUHU216DAVISVP2,2013-12-30 11:47:00,
2013-12-30 05:52:00,14.1,8.8,30.35,NW,326,8.0,8.0,79,0.00,,,0.00,WUHU216DAVISVP2,2013-12-30 11:52:00,
2013-12-30 05:57:00,14.0,8.4,30.35,NNW,337,5.0,11.0,78,0.00,,,0.00,WUHU216DAVISVP2,2013-12-30 11:57:00,
2013-12-30 06:02:00,14.0,8.7,30.35,NW,317,4.0,11.0,79,0.00,,,0.00,WUHU216DAVISVP2,2013-12-30 12:02:00,
2013-12-30 06:07:00,14.0,9.0,30.35,NNW,339,5.0,9.0,80,0.00,,,0.00,WUHU216DAVISVP2,2013-12-30 12:07:00,
2013-12-30 06:12:00,13.9,8.9,30.35,NW,324,6.0,9.0,80,0.00,,,0.00,WUHU216DAVISVP2,2013-12-30 12:12:00,
2013-12-30 06:17:00,13.7,8.7,30.35,NNW,347,2.0,9.0,80,0.00,,,0.00,WUHU216DAVISVP2,2013-12-30 12:17:00,
2013-12-30 06:22:00,13.6,8.8,30.35,NNW,342,3.0,7.0,81,0.00,,,0.00,WUHU216DAVISVP2,2013-12-30 12:22:00,
2013-12-30 06:27:00,13.4,8.7,30.35,North,350,5.0,6.0,81,0.00,,,0.00,WUHU216DAVISVP2,2013-12-30 12:27:00,
2013-12-30 06:32:00,13.3,8.6,30.35,NNW,328,5.0,6.0,81,0.00,,,0.00,WUHU216DAVISVP2,2013-12-30 12:32:00,
2013-12-30 06:37:00,13.3,8.3,30.36,NNW,340,6.0,9.0,80,0.00,,,0.00,WUHU216DAVISVP2,2013-12-30 12:37:00,
2013-12-30 06:42:00,13.3,8.3,30.36,NNW,335,6.0,9.0,80,0.00,,,0.00,WUHU216DAVISVP2,2013-12-30 12:42:00,
2013-12-30 06:47:00,13.3,8.3,30.36,NNW,345,9.0,9.0,80,0.00,,,0.00,WUHU216DAVISVP2,2013-12-30 12:47:00,
2013-12-30 06:52:00,13.2,7.9,30.36,NNW,338,5.0,9.0,79,0.00,,,0.00,WUHU216DAVISVP2,2013-12-30 12:52:00,
2013-12-30 06:57:00,13.1,7.8,30.36,NNW,327,5.0,9.0,79,0.00,,,0.00,WUHU216DAVISVP2,2013-12-30 12:57:00,
2013-12-30 07:02:00,13.0,7.7,30.36,NNW,338,5.0,9.0,79,0.00,,,0.00,WUHU216DAVISVP2,2013-12-30 13:02:00,
2013-12-30 07:07:00,13.0,8.0,30.36,North,351,5.0,9.0,80,0.00,,,0.00,WUHU216DAVISVP2,2013-12-30 13:07:00,
2013-12-30 07:12:00,12.9,7.9,30.36,NW,326,6.0,8.0,80,0.00,,,0.00,WUHU216DAVISVP2,2013-12-30 13:12:00,
2013-12-30 07:17:00,12.9,7.6,30.36,NW,320,4.0,8.0,79,0.00,,,0.00,WUHU216DAVISVP2,2013-12-30 13:17:00,
2013-12-30 07:22:00,12.8,7.5,30.36,NNW,345,5.0,8.0,79,0.00,,,0.00,WUHU216DAVISVP2,2013-12-30 13:22:00,
2013-12-30 07:27:00,12.9,7.9,30.36,North,354,5.0,8.0,80,0.00,,,0.00,WUHU216DAVISVP2,2013-12-30 13:27:00,
2013-12-30 07:32:00,12.9,7.9,30.36,NNW,332,4.0,6.0,80,0.00,,,0.00,WUHU216DAVISVP2,2013-12-30 13:32:00,
2013-12-30 07:37:00,13.0,8.0,30.36,NNW,337,6.0,7.0,80,0.00,,,0.00,WUHU216DAVISVP2,2013-12-30 13:37:00,
2013-12-30 07:42:00,13.0,8.0,30.36,NW,313,7.0,8.0,80,0.00,,,0.00,WUHU216DAVISVP2,2013-12-30 13:42:00,
2013-12-30 07:47:00,13.2,8.2,30.36,NNW,337,7.0,8.0,80,0.00,,,0.00,WUHU216DAVISVP2,2013-12-30 13:47:00,
2013-12-30 07:52:00,13.2,7.9,30.37,NW,307,5.0,9.0,79,0.00,,,0.00,WUHU216DAVISVP2,2013-12-30 13:52:00,
2013-12-30 07:57:00,13.5,8.2,30.37,NNW,327,6.0,9.0,79,0.00,,,0.00,WUHU216DAVISVP2,2013-12-30 13:57:00,
2013-12-30 08:02:00,13.4,8.1,30.37,NNW,340,6.0,10.0,79,0.00,,,0.00,WUHU216DAVISVP2,2013-12-30 14:02:00,
2013-12-30 08:07:00,13.5,8.2,30.37,NNW,338,2.0,10.0,79,0.00,,,0.00,WUHU216DAVISVP2,2013-12-30 14:07:00,
2013-12-30 08:12:00,13.4,7.8,30.37,NW,322,8.0,10.0,78,0.00,,,0.00,WUHU216DAVISVP2,2013-12-30 14:12:00,
2013-12-30 08:17:00,13.4,7.8,30.37,NNW,342,7.0,10.0,78,0.00,,,0.00,WUHU216DAVISVP2,2013-12-30 14:17:00,
2013-12-30 08:22:00,13.5,8.2,30.37,NNW,338,6.0,9.0,79,0.00,,,0.00,WUHU216DAVISVP2,2013-12-30 14:22:00,
2013-12-30 08:27:00,13.6,8.3,30.37,NNW,337,5.0,9.0,79,0.00,,,0.00,WUHU216DAVISVP2,2013-12-30 14:27:00,
2013-12-30 08:32:00,14.0,8.7,30.37,North,4,7.0,7.0,79,0.00,,,0.00,WUHU216DAVISVP2,2013-12-30 14:32:00,
2013-12-30 08:37:00,14.2,8.6,30.37,NNW,335,4.0,8.0,78,0.00,,,0.00,WUHU216DAVISVP2,2013-12-30 14:37:00,
2013-12-30 08:42:00,14.3,8.4,30.37,ENE,58,1.0,8.0,77,0.00,,,0.00,WUHU216DAVISVP2,2013-12-30 14:42:00,
2013-12-30 08:47:00,14.3,7.9,30.38,NNW,335,6.0,8.0,75,0.00,,,0.00,WUHU216DAVISVP2,2013-12-30 14:47:00,
2013-12-30 08:52:00,14.4,8.2,30.38,NNW,336,4.0,8.0,76,0.00,,,0.00,WUHU216DAVISVP2,2013-12-30 14:52:00,
2013-12-30 08:57:00,14.5,8.3,30.38,NW,315,9.0,10.0,76,0.00,,,0.00,WUHU216DAVISVP2,2013-12-30 14:57:00,
2013-12-30 09:02:00,14.5,8.3,30.38,NNW,344,3.0,10.0,76,0.00,,,0.00,WUHU216DAVISVP2,2013-12-30 15:02:00,
2013-12-30 09:07:00,14.7,8.5,30.39,NNW,335,8.0,9.0,76,0.00,,,0.00,WUHU216DAVISVP2,2013-12-30 15:07:00,
2013-12-30 09:12:00,14.8,8.6,30.39,NNW,338,6.0,10.0,76,0.00,,,0.00,WUHU216DAVISVP2,2013-12-30 15:12:00,
2013-12-30 09:17:00,15.0,8.5,30.39,NNW,348,7.0,10.0,75,0.00,,,0.00,WUHU216DAVISVP2,2013-12-30 15:17:00,
2013-12-30 09:22:00,14.9,8.7,30.39,NNW,328,7.0,11.0,76,0.00,,,0.00,WUHU216DAVISVP2,2013-12-30 15:22:00,
2013-12-30 09:27:00,15.3,9.4,30.39,NE,51,2.0,11.0,77,0.00,,,0.00,WUHU216DAVISVP2,2013-12-30 15:27:00,
2013-12-30 09:32:00,15.6,9.4,30.39,NNW,329,7.0,8.0,76,0.00,,,0.00,WUHU216DAVISVP2,2013-12-30 15:32:00,
2013-12-30 09:37:00,15.6,9.1,30.39,NE,36,1.0,7.0,75,0.00,,,0.00,WUHU216DAVISVP2,2013-12-30 15:37:00,
2013-12-30 09:42:00,16.0,9.2,30.39,NE,46,3.0,7.0,74,0.00,,,0.00,WUHU216DAVISVP2,2013-12-30 15:42:00,
2013-12-30 09:47:00,15.8,8.7,30.39,NNW,328,3.0,8.0,73,0.00,,,0.00,WUHU216DAVISVP2,2013-12-30 15:47:00,
2013-12-30 09:52:00,16.0,9.2,30.39,North,354,6.0,8.0,74,0.00,,,0.00,WUHU216DAVISVP2,2013-12-30 15:52:00,
2013-12-30 09:57:00,15.9,8.8,30.39,NNW,344,1.0,8.0,73,0.00,,,0.00,WUHU216DAVISVP2,2013-12-30 15:57:00,
2013-12-30 10:02:00,16.1,9.3,30.39,NNW,328,9.0,9.0,74,0.00,,,0.00,WUHU216DAVISVP2,2013-12-30 16:02:00,
2013-12-30 10:07:00,16.3,8.9,30.39,NNW,339,8.0,11.0,72,0.00,,,0.00,WUHU216DAVISVP2,2013-12-30 16:07:00,
2013-12-30 10:12:00,16.5,9.1,30.39,NNE,21,1.0,11.0,72,0.00,,,0.00,WUHU216DAVISVP2,2013-12-30 16:12:00,
2013-12-30 10:17:00,17.0,9.3,30.39,NNW,336,6.0,7.0,71,0.00,,,0.00,WUHU216DAVISVP2,2013-12-30 16:17:00,
2013-12-30 10:22:00,17.0,9.2,30.38,NW,326,7.0,9.0,71,0.00,,,0.00,WUHU216DAVISVP2,2013-12-30 16:22:00,
2013-12-30 10:27:00,17.0,8.9,30.38,NNW,336,5.0,9.0,70,0.00,,,0.00,WUHU216DAVISVP2,2013-12-30 16:27:00,
2013-12-30 10:32:00,17.0,9.3,30.38,NW,320,4.0,9.0,71,0.00,,,0.00,WUHU216DAVISVP2,2013-12-30 16:32:00,
2013-12-30 10:37:00,17.2,8.5,30.38,North,7,2.0,8.0,68,0.00,,,0.00,WUHU216DAVISVP2,2013-12-30 16:37:00,
2013-12-30 10:42:00,17.6,9.8,30.37,NNW,344,6.0,8.0,71,0.00,,,0.00,WUHU216DAVISVP2,2013-12-30 16:42:00,
2013-12-30 10:47:00,17.8,8.7,30.37,NW,321,4.0,11.0,67,0.00,,,0.00,WUHU216DAVISVP2,2013-12-30 16:47:00,
2013-12-30 10:52:00,18.2,9.5,30.37,NE,51,2.0,9.0,68,0.00,,,0.00,WUHU216DAVISVP2,2013-12-30 16:52:00,
2013-12-30 10:57:00,18.3,8.9,30.37,NW,321,3.0,9.0,66,0.00,,,0.00,WUHU216DAVISVP2,2013-12-30 16:57:00,
2013-12-30 11:02:00,18.6,8.8,30.36,NW,316,4.0,8.0,65,0.00,,,0.00,WUHU216DAVISVP2,2013-12-30 17:02:00,
2013-12-30 11:07:00,18.8,8.6,30.35,North,356,1.0,8.0,64,0.00,,,0.00,WUHU216DAVISVP2,2013-12-30 17:07:00,
2013-12-30 11:12:00,18.8,7.6,30.35,NW,326,6.0,6.0,61,0.00,,,0.00,WUHU216DAVISVP2,2013-12-30 17:12:00,
2013-12-30 11:17:00,18.8,7.6,30.35,NW,323,4.0,7.0,61,0.00,,,0.00,WUHU216DAVISVP2,2013-12-30 17:17:00,
2013-12-30 11:22:00,19.0,8.5,30.35,NNW,328,6.0,7.0,63,0.00,,,0.00,WUHU216DAVISVP2,2013-12-30 17:22:00,
2013-12-30 11:27:00,19.2,7.6,30.35,NW,319,4.0,7.0,60,0.00,,,0.00,WUHU216DAVISVP2,2013-12-30 17:27:00,
2013-12-30 11:32:00,19.5,7.9,30.34,West,270,3.0,7.0,60,0.00,,,0.00,WUHU216DAVISVP2,2013-12-30 17:32:00,
2013-12-30 11:37:00,19.5,7.9,30.34,NNW,341,5.0,6.0,60,0.00,,,0.00,WUHU216DAVISVP2,2013-12-30 17:37:00,
2013-12-30 11:42:00,19.7,8.8,30.34,NNW,335,3.0,7.0,62,0.00,,,0.00,WUHU216DAVISVP2,2013-12-30 17:42:00,
2013-12-30 11:47:00,20.1,8.8,30.34,WNW,292,2.0,7.0,61,0.00,,,0.00,WUHU216DAVISVP2,2013-12-30 17:47:00,
2013-12-30 11:52:00,20.2,8.6,30.34,NNW,328,0.0,5.0,60,0.00,,,0.00,WUHU216DAVISVP2,2013-12-30 17:52:00,
2013-12-30 11:57:00,20.4,8.4,30.33,WSW,243,2.0,5.0,59,0.00,,,0.00,WUHU216DAVISVP2,2013-12-30 17:57:00,
2013-12-30 12:02:00,20.9,8.8,30.33,NW,325,3.0,4.0,59,0.00,,,0.00,WUHU216DAVISVP2,2013-12-30 18:02:00,
2013-12-30 12:07:00,20.9,8.8,30.33,WNW,300,2.0,4.0,59,0.00,,,0.00,WUHU216DAVISVP2,2013-12-30 18:07:00,
2013-12-30 12:12:00,20.9,9.2,30.33,NNW,328,3.0,3.0,60,0.00,,,0.00,WUHU216DAVISVP2,2013-12-30 18:12:00,
2013-12-30 12:17:00,21.1,9.0,30.33,WNW,300,2.0,6.0,59,0.00,,,0.00,WUHU216DAVISVP2,2013-12-30 18:17:00,
2013-12-30 12:22:00,21.1,8.6,30.33,WSW,246,2.0,6.0,58,0.00,,,0.00,WUHU216DAVISVP2,2013-12-30 18:22:00,
2013-12-30 12:27:00,21.4,8.9,30.33,WNW,299,3.0,6.0,58,0.00,,,0.00,WUHU216DAVISVP2,2013-12-30 18:27:00,
2013-12-30 12:32:00,21.7,9.2,30.33,WNW,282,2.0,6.0,58,0.00,,,0.00,WUHU216DAVISVP2,2013-12-30 18:32:00,
2013-12-30 12:37:00,21.8,9.7,30.33,NW,319,2.0,6.0,59,0.00,,,0.00,WUHU216DAVISVP2,2013-12-30 18:37:00,
2013-12-30 12:42:00,21.5,8.6,30.33,WNW,285,0.0,5.0,57,0.00,,,0.00,WUHU216DAVISVP2,2013-12-30 18:42:00,
2013-12-30 12:47:00,21.4,8.1,30.32,NE,40,0.0,5.0,56,0.00,,,0.00,WUHU216DAVISVP2,2013-12-30 18:47:00,
2013-12-30 12:52:00,21.6,8.7,30.32,WNW,295,1.0,4.0,57,0.00,,,0.00,WUHU216DAVISVP2,2013-12-30 18:52:00,
2013-12-30 12:57:00,21.9,8.2,30.32,WNW,283,1.0,4.0,55,0.00,,,0.00,WUHU216DAVISVP2,2013-12-30 18:57:00,
2013-12-30 13:02:00,22.1,8.4,30.32,WNW,284,2.0,4.0,55,0.00,,,0.00,WUHU216DAVISVP2,2013-12-30 19:02:00,
2013-12-30 13:07:00,22.4,8.2,30.32,SW,217,0.0,3.0,54,0.00,,,0.00,WUHU216DAVISVP2,2013-12-30 19:07:00,
2013-12-30 13:12:00,22.2,7.2,30.31,WNW,290,0.0,4.0,52,0.00,,,0.00,WUHU216DAVISVP2,2013-12-30 19:12:00,
2013-12-30 13:17:00,22.1,7.1,30.32,SW,226,1.0,4.0,52,0.00,,,0.00,WUHU216DAVISVP2,2013-12-30 19:17:00,
2013-12-30 13:22:00,22.5,8.3,30.32,SW,231,1.0,4.0,54,0.00,,,0.00,WUHU216DAVISVP2,2013-12-30 19:22:00,
2013-12-30 13:27:00,22.6,8.0,30.31,SSW,211,2.0,4.0,53,0.00,,,0.00,WUHU216DAVISVP2,2013-12-30 19:27:00,
2013-12-30 13:32:00,22.4,8.2,30.31,WSW,242,2.0,4.0,54,0.00,,,0.00,WUHU216DAVISVP2,2013-12-30 19:32:00,
2013-12-30 13:37:00,22.4,8.7,30.31,WNW,287,2.0,3.0,55,0.00,,,0.00,WUHU216DAVISVP2,2013-12-30 19:37:00,
2013-12-30 13:42:00,22.3,9.0,30.31,SW,236,2.0,3.0,56,0.00,,,0.00,WUHU216DAVISVP2,2013-12-30 19:42:00,
2013-12-30 13:47:00,22.5,9.2,30.31,SSW,202,0.0,4.0,56,0.00,,,0.00,WUHU216DAVISVP2,2013-12-30 19:47:00,
2013-12-30 13:52:00,22.9,10.3,30.31,WSW,243,0.0,4.0,58,0.00,,,0.00,WUHU216DAVISVP2,2013-12-30 19:52:00,
2013-12-30 14:02:00,23.3,10.3,30.30,WSW,243,0.0,4.0,57,0.00,,,0.00,WUHU216DAVISVP2,2013-12-30 20:02:00,
2013-12-30 14:07:00,23.5,8.8,30.30,WNW,292,2.0,5.0,53,0.00,,,0.00,WUHU216DAVISVP2,2013-12-30 20:07:00,
2013-12-30 14:12:00,24.2,10.8,30.30,ESE,117,0.0,5.0,56,0.00,,,0.00,WUHU216DAVISVP2,2013-12-30 20:12:00,
2013-12-30 14:17:00,24.3,9.1,30.30,WSW,244,1.0,5.0,52,0.00,,,0.00,WUHU216DAVISVP2,2013-12-30 20:17:00,
2013-12-30 14:22:00,24.2,9.5,30.30,ESE,105,0.0,5.0,53,0.00,,,0.00,WUHU216DAVISVP2,2013-12-30 20:22:00,
2013-12-30 14:28:00,24.0,9.7,30.30,SW,219,1.0,2.0,54,0.00,,,0.00,WUHU216DAVISVP2,2013-12-30 20:28:00,
2013-12-30 14:33:00,23.8,8.3,30.30,West,261,0.0,4.0,51,0.00,,,0.00,WUHU216DAVISVP2,2013-12-30 20:33:00,
2013-12-30 14:37:00,23.8,8.2,30.30,WNW,288,2.0,4.0,51,0.00,,,0.00,WUHU216DAVISVP2,2013-12-30 20:37:00,
2013-12-30 14:43:00,23.7,8.6,30.30,WNW,293,1.0,4.0,52,0.00,,,0.00,WUHU216DAVISVP2,2013-12-30 20:43:00,
2013-12-30 14:48:00,24.2,9.5,30.30,West,264,2.0,4.0,53,0.00,,,0.00,WUHU216DAVISVP2,2013-12-30 20:48:00,
2013-12-30 14:53:00,24.2,9.1,30.29,SSW,201,1.0,4.0,52,0.00,,,0.00,WUHU216DAVISVP2,2013-12-30 20:53:00,
2013-12-30 14:58:00,24.3,9.6,30.29,WSW,257,1.0,4.0,53,0.00,,,0.00,WUHU216DAVISVP2,2013-12-30 20:58:00,
2013-12-30 15:03:00,24.2,9.1,30.29,WNW,294,2.0,4.0,52,0.00,,,0.00,WUHU216DAVISVP2,2013-12-30 21:03:00,
2013-12-30 15:08:00,23.9,8.8,30.29,NW,315,0.0,4.0,52,0.00,,,0.00,WUHU216DAVISVP2,2013-12-30 21:08:00,
2013-12-30 15:13:00,24.0,8.9,30.29,NW,325,0.0,2.0,52,0.00,,,0.00,WUHU216DAVISVP2,2013-12-30 21:13:00,
2013-12-30 15:18:00,24.5,9.8,30.29,West,281,0.0,2.0,53,0.00,,,0.00,WUHU216DAVISVP2,2013-12-30 21:18:00,
2013-12-30 15:23:00,24.8,10.1,30.29,WSW,251,2.0,2.0,53,0.00,,,0.00,WUHU216DAVISVP2,2013-12-30 21:23:00,
2013-12-30 15:28:00,24.4,9.7,30.29,WNW,291,0.0,2.0,53,0.00,,,0.00,WUHU216DAVISVP2,2013-12-30 21:28:00,
2013-12-30 15:33:00,24.2,9.9,30.28,SW,232,0.0,2.0,54,0.00,,,0.00,WUHU216DAVISVP2,2013-12-30 21:33:00,
2013-12-30 15:38:00,24.3,10.0,30.29,SW,219,0.0,1.0,54,0.00,,,0.00,WUHU216DAVISVP2,2013-12-30 21:38:00,
2013-12-30 15:42:00,24.4,9.7,30.30,SW,215,0.0,1.0,53,0.00,,,0.00,WUHU216DAVISVP2,2013-12-30 21:42:00,
2013-12-30 15:47:00,24.4,9.7,30.29,South,184,0.0,2.0,53,0.00,,,0.00,WUHU216DAVISVP2,2013-12-30 21:47:00,
2013-12-30 15:52:00,24.4,10.1,30.28,SW,214,0.0,2.0,54,0.00,,,0.00,WUHU216DAVISVP2,2013-12-30 21:52:00,
2013-12-30 15:57:00,24.4,10.5,30.28,SW,214,0.0,1.0,55,0.00,,,0.00,WUHU216DAVISVP2,2013-12-30 21:57:00,
2013-12-30 16:02:00,24.5,10.6,30.29,SW,214,0.0,1.0,55,0.00,,,0.00,WUHU216DAVISVP2,2013-12-30 22:02:00,
2013-12-30 16:07:00,24.8,11.3,30.29,South,181,3.0,3.0,56,0.00,,,0.00,WUHU216DAVISVP2,2013-12-30 22:07:00,
2013-12-30 16:12:00,25.1,10.3,30.29,SW,217,1.0,3.0,53,0.00,,,0.00,WUHU216DAVISVP2,2013-12-30 22:12:00,
2013-12-30 16:17:00,25.3,10.1,30.29,SSW,202,1.0,4.0,52,0.00,,,0.00,WUHU216DAVISVP2,2013-12-30 22:17:00,
2013-12-30 16:22:00,25.3,9.6,30.29,SSW,213,1.0,4.0,51,0.00,,,0.00,WUHU216DAVISVP2,2013-12-30 22:22:00,
2013-12-30 16:28:00,25.0,10.2,30.29,South,188,2.0,5.0,53,0.00,,,0.00,WUHU216DAVISVP2,2013-12-30 22:28:00,
2013-12-30 16:32:00,24.6,9.9,30.29,SSW,194,2.0,5.0,53,0.00,,,0.00,WUHU216DAVISVP2,2013-12-30 22:32:00,
2013-12-30 16:37:00,24.4,10.5,30.29,SSW,210,0.0,5.0,55,0.00,,,0.00,WUHU216DAVISVP2,2013-12-30 22:37:00,
2013-12-30 16:42:00,24.3,10.4,30.29,SSW,213,2.0,3.0,55,0.00,,,0.00,WUHU216DAVISVP2,2013-12-30 22:42:00,
2013-12-30 16:47:00,24.1,11.5,30.29,SSW,212,1.0,3.0,58,0.00,,,0.00,WUHU216DAVISVP2,2013-12-30 22:47:00,
2013-12-30 16:52:00,24.1,11.9,30.29,SW,214,1.0,2.0,59,0.00,,,0.00,WUHU216DAVISVP2,2013-12-30 22:52:00,
2013-12-30 16:58:00,24.0,11.8,30.29,SSW,198,0.0,2.0,59,0.00,,,0.00,WUHU216DAVISVP2,2013-12-30 22:58:00,
2013-12-30 17:03:00,23.8,11.9,30.29,SSW,210,1.0,1.0,60,0.00,,,0.00,WUHU216DAVISVP2,2013-12-30 23:03:00,
2013-12-30 17:08:00,23.8,12.7,30.30,SW,223,1.0,2.0,62,0.00,,,0.00,WUHU216DAVISVP2,2013-12-30 23:08:00,
2013-12-30 17:13:00,23.8,13.4,30.30,SW,220,0.0,2.0,64,0.00,,,0.00,WUHU216DAVISVP2,2013-12-30 23:13:00,
2013-12-30 17:18:00,23.7,13.4,30.30,WSW,253,1.0,2.0,64,0.00,,,0.00,WUHU216DAVISVP2,2013-12-30 23:18:00,
2013-12-30 17:23:00,23.7,13.4,30.30,WSW,253,1.0,1.0,64,0.00,,,0.00,WUHU216DAVISVP2,2013-12-30 23:23:00,
2013-12-30 17:34:00,23.3,12.6,30.30,West,278,0.0,0.0,63,0.00,,,0.00,WUHU216DAVISVP2,2013-12-30 23:34:00,
2013-12-30 17:39:00,23.2,12.9,30.30,West,278,0.0,0.0,64,0.00,,,0.00,WUHU216DAVISVP2,2013-12-30 23:39:00,
2013-12-30 17:44:00,23.1,12.4,30.30,West,278,0.0,0.0,63,0.00,,,0.00,WUHU216DAVISVP2,2013-12-30 23:44:00,
2013-12-30 17:49:00,23.4,14.1,30.30,West,279,0.0,1.0,67,0.00,,,0.00,WUHU216DAVISVP2,2013-12-30 23:49:00,
2013-12-30 17:54:00,23.6,14.6,30.30,West,280,0.0,1.0,68,0.00,,,0.00,WUHU216DAVISVP2,2013-12-30 23:54:00,
2013-12-30 17:59:00,23.5,15.5,30.30,West,281,0.0,0.0,71,0.00,,,0.00,WUHU216DAVISVP2,2013-12-30 23:59:00,
2013-12-30 18:04:00,23.3,15.0,30.30,East,83,0.0,0.0,70,0.00,,,0.00,WUHU216DAVISVP2,2013-12-31 00:04:00,
2013-12-30 18:09:00,23.1,14.8,30.30,East,82,0.0,0.0,70,0.00,,,0.00,WUHU216DAVISVP2,2013-12-31 00:09:00,
2013-12-30 18:14:00,23.0,14.4,30.30,East,82,0.0,0.0,69,0.00,,,0.00,WUHU216DAVISVP2,2013-12-31 00:14:00,
2013-12-30 18:19:00,23.0,14.7,30.30,East,82,0.0,0.0,70,0.00,,,0.00,WUHU216DAVISVP2,2013-12-31 00:19:00,
2013-12-30 18:24:00,22.8,14.2,30.29,East,82,0.0,0.0,69,0.00,,,0.00,WUHU216DAVISVP2,2013-12-31 00:24:00,
2013-12-30 18:29:00,22.7,14.1,30.29,East,83,0.0,0.0,69,0.00,,,0.00,WUHU216DAVISVP2,2013-12-31 00:29:00,
2013-12-30 18:34:00,22.5,13.5,30.30,East,82,0.0,0.0,68,0.00,,,0.00,WUHU216DAVISVP2,2013-12-31 00:34:00,
2013-12-30 18:39:00,22.1,13.2,30.30,East,82,0.0,0.0,68,0.00,,,0.00,WUHU216DAVISVP2,2013-12-31 00:39:00,
2013-12-30 18:44:00,21.7,13.1,30.30,East,82,0.0,0.0,69,0.00,,,0.00,WUHU216DAVISVP2,2013-12-31 00:44:00,
2013-12-30 18:49:00,21.6,13.1,30.30,East,82,0.0,0.0,69,0.00,,,0.00,WUHU216DAVISVP2,2013-12-31 00:49:00,
2013-12-30 18:54:00,21.4,12.9,30.30,East,82,0.0,0.0,69,0.00,,,0.00,WUHU216DAVISVP2,2013-12-31 00:54:00,
2013-12-30 18:59:00,21.1,12.6,30.30,East,82,0.0,0.0,69,0.00,,,0.00,WUHU216DAVISVP2,2013-12-31 00:59:00,
2013-12-30 19:04:00,21.1,12.9,30.30,East,98,0.0,0.0,70,0.00,,,0.00,WUHU216DAVISVP2,2013-12-31 01:04:00,
2013-12-30 19:09:00,21.0,13.1,30.29,ESE,122,0.0,0.0,71,0.00,,,0.00,WUHU216DAVISVP2,2013-12-31 01:09:00,
2013-12-30 19:14:00,21.3,13.4,30.29,ESE,122,0.0,2.0,71,0.00,,,0.00,WUHU216DAVISVP2,2013-12-31 01:14:00,
2013-12-30 19:19:00,21.3,13.4,30.30,SE,136,0.0,2.0,71,0.00,,,0.00,WUHU216DAVISVP2,2013-12-31 01:19:00,
2013-12-30 19:24:00,21.4,13.5,30.30,SE,136,0.0,1.0,71,0.00,,,0.00,WUHU216DAVISVP2,2013-12-31 01:24:00,
2013-12-30 19:29:00,21.7,14.1,30.30,SE,136,0.0,1.0,72,0.00,,,0.00,WUHU216DAVISVP2,2013-12-31 01:29:00,
2013-12-30 19:34:00,21.8,14.5,30.30,SE,136,0.0,0.0,73,0.00,,,0.00,WUHU216DAVISVP2,2013-12-31 01:34:00,
2013-12-30 19:39:00,22.0,15.0,30.29,SE,136,0.0,0.0,74,0.00,,,0.00,WUHU216DAVISVP2,2013-12-31 01:39:00,
2013-12-30 19:44:00,22.2,15.2,30.29,SW,221,0.0,0.0,74,0.00,,,0.00,WUHU216DAVISVP2,2013-12-31 01:44:00,
2013-12-30 19:49:00,22.4,15.1,30.29,SW,221,0.0,0.0,73,0.00,,,0.00,WUHU216DAVISVP2,2013-12-31 01:49:00,
2013-12-30 19:54:00,22.6,15.0,30.29,SW,221,0.0,0.0,72,0.00,,,0.00,WUHU216DAVISVP2,2013-12-31 01:54:00,
2013-12-30 19:59:00,22.8,14.9,30.30,SSW,211,0.0,0.0,71,0.00,,,0.00,WUHU216DAVISVP2,2013-12-31 01:59:00,
2013-12-30 20:04:00,22.9,15.3,30.31,SSW,213,0.0,0.0,72,0.00,,,0.00,WUHU216DAVISVP2,2013-12-31 02:04:00,
2013-12-30 20:09:00,23.3,15.3,30.31,South,186,1.0,1.0,71,0.00,,,0.00,WUHU216DAVISVP2,2013-12-31 02:09:00,
2013-12-30 20:14:00,23.4,15.7,30.30,South,174,1.0,2.0,72,0.00,,,0.00,WUHU216DAVISVP2,2013-12-31 02:14:00,
2013-12-30 20:19:00,23.5,15.5,30.30,South,184,1.0,3.0,71,0.00,,,0.00,WUHU216DAVISVP2,2013-12-31 02:19:00,
2013-12-30 20:24:00,23.8,15.2,30.30,South,181,2.0,5.0,69,0.00,,,0.00,WUHU216DAVISVP2,2013-12-31 02:24:00,
2013-12-30 20:29:00,23.9,14.9,30.30,South,183,2.0,5.0,68,0.00,,,0.00,WUHU216DAVISVP2,2013-12-31 02:29:00,
2013-12-30 20:34:00,23.9,15.3,30.30,SSE,165,5.0,6.0,69,0.00,,,0.00,WUHU216DAVISVP2,2013-12-31 02:34:00,
2013-12-30 20:39:00,24.0,15.4,30.30,SSE,165,6.0,6.0,69,0.00,,,0.00,WUHU216DAVISVP2,2013-12-31 02:39:00,
2013-12-30 20:44:00,24.1,15.1,30.29,SSE,167,4.0,7.0,68,0.00,,,0.00,WUHU216DAVISVP2,2013-12-31 02:44:00,
2013-12-30 20:49:00,24.2,15.2,30.30,South,191,5.0,7.0,68,0.00,,,0.00,WUHU216DAVISVP2,2013-12-31 02:49:00,
2013-12-30 20:54:00,24.3,15.3,30.29,SW,221,4.0,8.0,68,0.00,,,0.00,WUHU216DAVISVP2,2013-12-31 02:54:00,
2013-12-30 20:59:00,24.3,15.3,30.29,SSE,167,8.0,9.0,68,0.00,,,0.00,WUHU216DAVISVP2,2013-12-31 02:59:00,
2013-12-30 21:04:00,24.4,15.7,30.29,South,181,5.0,9.0,69,0.00,,,0.00,WUHU216DAVISVP2,2013-12-31 03:04:00,
2013-12-30 21:09:00,24.4,15.1,30.29,SSE,162,7.0,8.0,67,0.00,,,0.00,WUHU216DAVISVP2,2013-12-31 03:09:00,
2013-12-30 21:14:00,24.5,15.1,30.29,South,172,8.0,9.0,67,0.00,,,0.00,WUHU216DAVISVP2,2013-12-31 03:14:00,
2013-12-30 21:19:00,24.6,15.3,30.29,SSW,204,5.0,9.0,67,0.00,,,0.00,WUHU216DAVISVP2,2013-12-31 03:19:00,
2013-12-30 21:24:00,24.6,15.6,30.29,South,171,4.0,9.0,68,0.00,,,0.00,WUHU216DAVISVP2,2013-12-31 03:24:00,
2013-12-30 21:29:00,24.7,15.7,30.29,SSW,202,6.0,9.0,68,0.00,,,0.00,WUHU216DAVISVP2,2013-12-31 03:29:00,
2013-12-30 21:34:00,24.7,15.7,30.29,SSW,200,7.0,10.0,68,0.00,,,0.00,WUHU216DAVISVP2,2013-12-31 03:34:00,
2013-12-30 21:39:00,24.7,15.6,30.28,South,190,9.0,10.0,68,0.00,,,0.00,WUHU216DAVISVP2,2013-12-31 03:39:00,
2013-12-30 21:44:00,24.7,15.7,30.28,SSW,197,9.0,10.0,68,0.00,,,0.00,WUHU216DAVISVP2,2013-12-31 03:44:00,
2013-12-30 21:49:00,24.8,16.1,30.28,South,176,5.0,9.0,69,0.00,,,0.00,WUHU216DAVISVP2,2013-12-31 03:49:00,
2013-12-30 21:54:00,24.8,15.8,30.28,SSW,200,6.0,12.0,68,0.00,,,0.00,WUHU216DAVISVP2,2013-12-31 03:54:00,
2013-12-30 21:59:00,24.9,15.9,30.29,SSW,193,6.0,12.0,68,0.00,,,0.00,WUHU216DAVISVP2,2013-12-31 03:59:00,
2013-12-30 22:04:00,25.0,16.3,30.29,South,184,6.0,10.0,69,0.00,,,0.00,WUHU216DAVISVP2,2013-12-31 04:04:00,
2013-12-30 22:09:00,25.1,16.4,30.29,SSE,162,6.0,10.0,69,0.00,,,0.00,WUHU216DAVISVP2,2013-12-31 04:09:00,
2013-12-30 22:14:00,25.3,16.5,30.29,SW,225,7.0,9.0,69,0.00,,,0.00,WUHU216DAVISVP2,2013-12-31 04:14:00,
2013-12-30 22:19:00,25.4,16.0,30.29,SSW,200,6.0,11.0,67,0.00,,,0.00,WUHU216DAVISVP2,2013-12-31 04:19:00,
2013-12-30 22:24:00,25.5,16.1,30.29,SSW,202,5.0,12.0,67,0.00,,,0.00,WUHU216DAVISVP2,2013-12-31 04:24:00,
2013-12-30 22:29:00,25.7,16.3,30.29,South,174,6.0,12.0,67,0.00,,,0.00,WUHU216DAVISVP2,2013-12-31 04:29:00,
2013-12-30 22:34:00,25.9,15.4,30.29,SW,216,9.0,12.0,64,0.00,,,0.00,WUHU216DAVISVP2,2013-12-31 04:34:00,
2013-12-30 22:39:00,26.0,15.5,30.30,SW,231,9.0,12.0,64,0.00,,,0.00,WUHU216DAVISVP2,2013-12-31 04:39:00,
2013-12-30 22:44:00,26.1,16.0,30.30,SW,226,5.0,11.0,65,0.00,,,0.00,WUHU216DAVISVP2,2013-12-31 04:44:00,
2013-12-30 22:49:00,26.1,16.0,30.30,SW,214,7.0,11.0,65,0.00,,,0.00,WUHU216DAVISVP2,2013-12-31 04:49:00,
2013-12-30 22:54:00,26.1,16.0,30.30,SW,226,10.0,11.0,65,0.00,,,0.00,WUHU216DAVISVP2,2013-12-31 04:54:00,
2013-12-30 22:59:00,26.1,15.9,30.30,SW,214,6.0,11.0,65,0.00,,,0.00,WUHU216DAVISVP2,2013-12-31 04:59:00,
2013-12-30 23:01:00,26.1,15.9,30.30,SSW,204,6.0,11.0,65,0.00,,,0.00,WUHU216DAVISVP2,2013-12-31 05:01:00,
2013-12-30 23:06:00,26.2,16.1,30.30,SSW,210,6.0,11.0,65,0.00,,,0.00,WUHU216DAVISVP2,2013-12-31 05:06:00,
2013-12-30 23:11:00,26.2,16.4,30.30,SSW,205,5.0,11.0,66,0.00,,,0.00,WUHU216DAVISVP2,2013-12-31 05:11:00,
2013-12-30 23:16:00,26.3,16.5,30.30,WSW,250,4.0,9.0,66,0.00,,,0.00,WUHU216DAVISVP2,2013-12-31 05:16:00,
2013-12-30 23:21:00,26.3,16.9,30.30,SW,222,5.0,9.0,67,0.00,,,0.00,WUHU216DAVISVP2,2013-12-31 05:21:00,
2013-12-30 23:26:00,26.4,17.0,30.30,WSW,239,3.0,8.0,67,0.00,,,0.00,WUHU216DAVISVP2,2013-12-31 05:26:00,
2013-12-30 23:31:00,26.6,17.5,30.30,SSW,198,5.0,8.0,68,0.00,,,0.00,WUHU216DAVISVP2,2013-12-31 05:31:00,
2013-12-30 23:36:00,26.9,17.1,30.30,WSW,248,6.0,9.0,66,0.00,,,0.00,WUHU216DAVISVP2,2013-12-31 05:36:00,
2013-12-30 23:41:00,26.9,17.1,30.30,SSW,210,2.0,9.0,66,0.00,,,0.00,WUHU216DAVISVP2,2013-12-31 05:41:00,
2013-12-30 23:46:00,26.9,17.5,30.30,WSW,246,5.0,9.0,67,0.00,,,0.00,WUHU216DAVISVP2,2013-12-31 05:46:00,
2013-12-30 23:51:00,26.7,17.3,30.30,WSW,237,3.0,7.0,67,0.00,,,0.00,WUHU216DAVISVP2,2013-12-31 05:51:00,
2013-12-30 23:56:00,26.7,17.2,30.30,West,259,2.0,7.0,67,0.00,,,0.00,WUHU216DAVISVP2,2013-12-31 05:56:00,